createdAt,value
2019-01-14T04:23:29.065Z,98494.66
2019-01-14T04:25:05.967Z,98497.33
2019-01-14T04:26:41.853Z,98501.45
2019-01-14T04:28:18.031Z,98503.12
2019-01-14T04:29:53.889Z,98522.01
2019-01-14T04:31:29.746Z,98518.59
2019-01-14T04:33:05.602Z,98524.20
2019-01-14T04:34:41.518Z,98519.83
2019-01-14T04:36:17.375Z,98528.92
2019-01-14T04:37:53.486Z,98540.45
2019-01-14T04:39:29.514Z,98538.34
2019-01-14T04:41:05.635Z,98551.22
2019-01-14T04:42:41.509Z,98545.98
2019-01-14T04:44:17.342Z,98543.41
2019-01-14T04:45:53.173Z,98562.02
2019-01-14T04:47:29.332Z,98508.88
2019-01-14T04:49:05.294Z,98549.09
2019-01-14T04:50:41.134Z,98557.55
2019-01-14T04:52:16.952Z,98567.48
2019-01-14T04:53:52.848Z,98579.12
2019-01-14T04:55:28.694Z,98559.30
2019-01-14T04:57:04.554Z,98581.47
2019-01-14T04:58:40.492Z,98589.77
2019-01-14T05:00:27.084Z,98585.06
2019-01-14T05:02:02.944Z,98595.33
2019-01-14T05:03:38.815Z,98588.17
2019-01-14T05:05:15.640Z,98592.48
2019-01-14T05:06:51.519Z,98586.97
2019-01-14T05:08:27.444Z,98599.78
2019-01-14T05:10:03.437Z,98589.27
2019-01-14T05:11:39.288Z,98612.63
2019-01-14T05:13:15.179Z,98618.31
2019-01-14T05:14:51.049Z,98616.09
2019-01-14T05:16:26.889Z,98619.92
2019-01-14T05:18:02.768Z,98614.97
2019-01-14T05:19:38.794Z,98635.47
2019-01-14T05:21:14.636Z,98619.15
2019-01-14T05:22:50.550Z,98624.98
2019-01-14T05:24:26.403Z,98636.37
2019-01-14T05:26:02.261Z,98638.05
2019-01-14T05:27:38.170Z,98648.46
2019-01-14T05:29:14.017Z,98651.69
2019-01-14T05:30:49.957Z,98651.13
2019-01-14T05:32:25.908Z,98637.88
2019-01-14T05:34:01.754Z,98656.36
2019-01-14T05:35:37.681Z,98664.11
2019-01-14T05:37:13.567Z,98658.78
2019-01-14T05:38:49.455Z,98672.20
2019-01-14T05:40:27.317Z,98679.15
2019-01-14T05:42:03.189Z,98673.61
2019-01-14T05:43:39.097Z,98666.75
2019-01-14T05:45:15.250Z,98694.48
2019-01-14T05:46:51.177Z,98695.70
2019-01-14T05:48:27.128Z,98696.93
2019-01-14T05:50:02.989Z,98712.00
2019-01-14T05:51:38.843Z,98710.73
2019-01-14T05:53:14.766Z,98725.84
2019-01-14T05:54:50.613Z,98713.27
2019-01-14T05:56:26.443Z,98719.67
2019-01-14T05:58:02.368Z,98725.99
2019-01-14T05:59:38.304Z,98729.68
2019-01-14T06:01:14.167Z,98739.64
2019-01-14T06:02:50.004Z,98742.91
2019-01-14T06:04:25.889Z,98749.30
2019-01-14T06:06:01.746Z,98751.05
2019-01-14T06:07:44.670Z,98762.70
2019-01-14T06:09:15.367Z,98774.41
2019-01-14T06:10:51.194Z,98761.45
2019-01-14T06:12:27.118Z,98771.77
2019-01-14T06:14:02.987Z,98776.52
2019-01-14T06:15:38.849Z,98785.03
2019-01-14T06:17:14.722Z,98783.77
2019-01-14T06:18:50.565Z,98794.34
2019-01-14T06:20:28.630Z,98794.44
2019-01-14T06:22:04.657Z,98799.20
2019-01-14T06:23:40.514Z,98804.58
2019-01-14T06:25:16.699Z,98809.91
2019-01-14T06:26:52.565Z,98801.27
2019-01-14T06:28:28.475Z,98797.42
2019-01-14T06:30:05.378Z,98795.42
2019-01-14T06:31:41.238Z,98797.70
2019-01-14T06:33:17.136Z,98786.16
2019-01-14T06:34:53.011Z,98795.09
2019-01-14T06:36:28.850Z,98798.20
2019-01-14T06:38:04.910Z,98795.14
2019-01-14T06:39:40.823Z,98801.91
2019-01-14T06:41:16.673Z,98792.18
2019-01-14T06:42:52.654Z,98799.84
2019-01-14T06:44:28.523Z,98793.72
2019-01-14T06:46:04.857Z,98806.95
2019-01-14T06:47:40.729Z,98803.87
2019-01-14T06:49:16.562Z,98806.33
2019-01-14T06:50:52.502Z,98807.72
2019-01-14T06:52:28.656Z,98822.09
2019-01-14T06:54:04.794Z,98811.27
2019-01-14T06:55:40.647Z,98812.60
2019-01-14T06:57:16.505Z,98827.93
2019-01-14T06:58:52.412Z,98821.25
2019-01-14T07:00:29.870Z,98814.47
2019-01-14T07:02:05.775Z,98828.39
2019-01-14T07:03:41.682Z,98827.70
2019-01-14T07:05:18.049Z,98825.75
2019-01-14T07:06:53.908Z,98820.86
2019-01-14T07:08:29.964Z,98812.08
2019-01-14T07:10:08.242Z,98818.44
2019-01-14T07:11:44.700Z,98832.04
2019-01-14T07:13:20.610Z,98829.01
2019-01-14T07:14:56.494Z,98827.87
2019-01-14T07:16:32.330Z,98833.20
2019-01-14T07:18:08.294Z,98832.94
2019-01-14T07:19:44.189Z,98842.31
2019-01-14T07:21:20.044Z,98845.85
2019-01-14T07:22:59.043Z,98848.09
2019-01-14T07:24:34.890Z,98837.81
2019-01-14T07:26:10.774Z,98843.66
2019-01-14T07:27:46.646Z,98848.88
2019-01-14T07:29:22.502Z,98845.01
2019-01-14T07:30:58.461Z,98860.53
2019-01-14T07:32:34.394Z,98852.31
2019-01-14T07:34:10.295Z,98852.81
2019-01-14T07:35:46.159Z,98845.42
2019-01-14T07:37:22.402Z,98854.53
2019-01-14T07:38:58.241Z,98862.73
2019-01-14T07:40:34.084Z,98871.52
2019-01-14T07:42:09.937Z,98859.74
2019-01-14T07:43:45.852Z,98862.03
2019-01-14T07:45:21.984Z,98872.95
2019-01-14T07:46:57.830Z,98865.08
2019-01-14T07:48:33.747Z,98877.14
2019-01-14T07:50:11.645Z,98866.04
2019-01-14T07:51:47.478Z,98870.30
2019-01-14T07:53:23.378Z,98864.44
2019-01-14T07:54:59.231Z,98862.77
2019-01-14T07:56:35.341Z,98857.81
2019-01-14T07:58:11.181Z,98849.33
2019-01-14T07:59:47.004Z,98847.92
2019-01-14T08:01:22.867Z,98841.16
2019-01-14T08:02:58.800Z,98877.88
2019-01-14T08:04:34.657Z,98860.70
2019-01-14T08:06:10.610Z,98862.55
2019-01-14T08:07:46.703Z,98864.87
2019-01-14T08:09:22.559Z,98871.39
2019-01-14T08:10:58.458Z,98892.66
2019-01-14T08:12:34.359Z,98882.72
2019-01-14T08:14:10.474Z,98895.93
2019-01-14T08:15:46.396Z,98892.55
2019-01-14T08:17:22.230Z,98910.41
2019-01-14T08:18:58.098Z,98914.21
2019-01-14T08:20:33.992Z,98906.69
2019-01-14T08:22:09.888Z,98923.09
2019-01-14T08:23:45.729Z,98954.17
2019-01-14T08:25:21.651Z,98936.34
2019-01-14T08:26:57.498Z,98940.92
2019-01-14T08:28:33.378Z,98942.33
2019-01-14T08:30:14.830Z,98951.30
2019-01-14T08:31:50.684Z,98950.53
2019-01-14T14:41:30.228Z,99292.48
2019-01-14T14:43:05.911Z,99274.22
2019-01-14T14:44:41.042Z,99281.84
2019-01-14T14:48:42.419Z,99320.80
2019-01-14T14:50:18.007Z,99322.10
2019-01-14T14:51:52.775Z,99325.56
2019-01-14T14:53:27.551Z,99321.50
2019-01-14T14:55:21.923Z,99324.72
2019-01-14T14:57:16.023Z,99325.31
2019-01-14T14:59:10.060Z,99313.65
2019-01-14T15:01:04.293Z,99309.02
2019-01-14T15:02:58.798Z,99313.24
2019-01-14T15:04:52.921Z,99315.16
2019-01-14T15:06:47.224Z,99310.98
2019-01-14T15:08:44.513Z,99301.83
2019-01-14T15:10:38.784Z,99294.92
2019-01-14T15:12:32.792Z,99296.48
2019-01-14T15:14:27.068Z,99301.25
2019-01-14T15:16:14.620Z,99304.71
2019-01-14T15:18:08.634Z,99304.99
2019-01-14T15:20:02.723Z,99295.22
2019-01-14T15:21:57.040Z,99309.75
2019-01-14T15:23:51.052Z,99314.59
2019-01-14T15:25:45.071Z,99314.44
2019-01-14T15:27:39.468Z,99312.20
2019-01-14T15:29:26.604Z,99325.70
2019-01-14T15:31:20.621Z,99331.31
2019-01-14T15:33:14.932Z,99336.42
2019-01-14T15:35:09.420Z,99343.70
2019-01-14T15:37:03.899Z,99348.51
2019-01-14T15:38:57.912Z,99361.83
2019-01-14T15:40:52.096Z,99356.22
2019-01-14T15:44:59.697Z,99368.52
2019-01-14T15:46:53.741Z,99384.08
2019-01-14T15:50:48.136Z,99392.11
2019-01-14T15:52:42.556Z,99384.08
2019-01-14T15:54:36.811Z,99403.28
2019-01-14T15:56:31.925Z,99412.20
2019-01-14T15:58:26.581Z,99425.22
2019-01-14T16:00:20.766Z,99425.73
2019-01-14T16:02:15.136Z,99434.53
2019-01-14T16:04:09.180Z,99437.33
2019-01-14T16:06:03.313Z,99452.02
2019-01-14T16:07:57.590Z,99456.83
2019-01-14T16:09:51.603Z,99458.98
2019-01-14T16:11:45.642Z,99469.05
2019-01-14T16:13:39.695Z,99467.27
2019-01-14T16:15:33.962Z,99473.27
2019-01-14T16:17:20.499Z,99487.67
2019-01-14T16:19:14.548Z,99485.33
2019-01-14T16:21:08.816Z,99495.83
2019-01-14T16:23:03.005Z,99499.49
2019-01-14T16:24:57.535Z,99502.20
2019-01-14T16:26:51.626Z,99513.72
2019-01-14T16:30:44.718Z,99520.94
2019-01-14T16:32:38.978Z,99522.00
2019-01-14T16:34:33.021Z,99531.70
2019-01-14T16:36:27.058Z,99541.63
2019-01-14T16:38:21.325Z,99545.00
2019-01-14T16:40:18.170Z,99548.67
2019-01-14T16:42:11.163Z,99546.89
2019-01-14T16:44:05.594Z,99563.83
2019-01-14T16:45:59.656Z,99564.46
2019-01-14T16:47:53.772Z,99569.80
2019-01-14T16:49:47.783Z,99568.69
2019-01-14T16:51:42.033Z,99565.67
2019-01-14T16:53:36.076Z,99571.80
2019-01-14T16:55:49.322Z,99574.25
2019-01-14T16:57:43.401Z,99582.52
2019-01-14T16:59:37.436Z,99585.91
2019-01-14T17:01:31.721Z,99593.58
2019-01-14T17:03:25.733Z,99598.40
2019-01-14T17:05:19.920Z,99607.79
2019-01-14T17:07:14.252Z,99617.66
2019-01-14T17:09:09.128Z,99617.42
2019-01-14T17:11:03.167Z,99626.75
2019-01-14T17:12:57.177Z,99626.78
2019-01-14T17:14:51.191Z,99633.95
2019-01-14T17:18:44.479Z,99639.87
2019-01-14T17:20:38.813Z,99643.00
2019-01-14T17:22:33.196Z,99646.29
2019-01-14T17:26:40.799Z,99656.89
2019-01-14T17:28:35.098Z,99653.22
2019-01-14T17:30:29.458Z,99662.04
2019-01-14T17:32:16.865Z,99662.74
2019-01-14T17:34:11.265Z,99669.66
2019-01-14T17:36:05.644Z,99668.67
2019-01-14T17:37:59.673Z,99667.27
2019-01-14T17:39:54.448Z,99670.87
2019-01-14T17:44:04.764Z,99680.30
2019-01-14T17:45:59.463Z,99683.08
2019-01-14T17:47:53.467Z,99686.81
2019-01-14T17:49:28.226Z,99687.11
2019-01-14T17:51:22.286Z,99691.27
2019-01-14T17:53:16.294Z,99689.77
2019-01-14T17:55:10.792Z,99689.98
2019-01-14T17:57:05.176Z,99706.70
2019-01-14T17:58:59.187Z,99703.63
2019-01-14T18:00:53.452Z,99693.89
2019-01-14T18:02:47.560Z,99700.08
2019-01-14T18:04:43.055Z,99707.94
2019-01-14T18:06:37.901Z,99711.48
2019-01-14T18:08:32.304Z,99716.30
2019-01-14T18:10:26.669Z,99716.89
2019-01-14T18:12:20.708Z,99714.80
2019-01-14T18:14:15.126Z,99720.76
2019-01-14T18:16:09.382Z,99724.00
2019-01-14T18:18:03.397Z,99722.73
2019-01-14T18:19:57.447Z,99730.73
2019-01-14T18:21:51.451Z,99735.81
2019-01-14T18:23:45.798Z,99735.97
2019-01-14T18:25:39.855Z,99738.51
2019-01-14T18:27:33.872Z,99740.06
2019-01-14T18:29:28.228Z,99746.78
2019-01-14T18:31:22.612Z,99746.08
2019-01-14T18:33:16.997Z,99752.60
2019-01-14T18:35:11.001Z,99758.68
2019-01-14T18:37:05.044Z,99754.75
2019-01-14T18:38:59.446Z,99768.27
2019-01-14T18:40:53.804Z,99771.47
2019-01-14T18:42:48.226Z,99771.76
2019-01-14T18:44:42.241Z,99779.03
2019-01-14T18:46:36.325Z,99778.72
2019-01-14T18:48:30.373Z,99782.94
2019-01-14T18:50:24.390Z,99786.27
2019-01-14T18:52:37.390Z,99788.48
2019-01-14T18:54:31.785Z,99797.57
2019-01-14T18:56:26.164Z,99796.20
2019-01-14T18:58:39.680Z,99801.66
2019-01-14T19:00:33.722Z,99807.47
2019-01-14T19:02:28.048Z,99819.23
2019-01-14T19:04:22.400Z,99816.20
2019-01-14T19:06:16.714Z,99823.63
2019-01-14T19:08:10.721Z,99826.36
2019-01-14T19:12:26.475Z,99830.38
2019-01-14T19:14:20.511Z,99829.04
2019-01-14T19:16:14.547Z,99836.95
2019-01-14T19:18:08.560Z,99827.00
2019-01-14T19:20:02.607Z,99835.98
2019-01-14T19:21:56.952Z,99832.47
2019-01-14T19:23:50.964Z,99845.89
2019-01-14T19:25:45.252Z,99845.42
2019-01-14T19:29:52.807Z,99851.54
2019-01-14T19:31:47.195Z,99864.02
2019-01-14T19:33:41.471Z,99860.02
2019-01-14T19:35:35.751Z,99866.91
2019-01-14T19:37:30.134Z,99871.94
2019-01-14T19:39:24.408Z,99875.38
2019-01-14T19:41:18.426Z,99866.78
2019-01-14T19:43:12.467Z,99881.52
2019-01-14T19:47:40.522Z,99874.52
2019-01-14T19:49:34.773Z,99881.23
2019-01-14T19:51:28.789Z,99885.38
2019-01-14T19:55:03.451Z,99887.75
2019-01-14T19:56:57.465Z,99895.37
2019-01-14T19:58:51.505Z,99905.44
2019-01-14T20:00:45.956Z,99896.87
2019-01-14T20:02:39.987Z,99898.64
2019-01-14T20:04:33.998Z,99913.30
2019-01-14T20:06:20.774Z,99909.31
2019-01-14T20:10:15.905Z,99920.29
2019-01-14T20:12:10.085Z,99910.58
2019-01-14T20:14:04.481Z,99923.16
2019-01-14T20:15:58.493Z,99920.65
2019-01-14T20:17:52.580Z,99932.27
2019-01-14T20:19:46.618Z,99925.97
2019-01-14T20:21:40.630Z,99919.28
2019-01-14T20:23:34.993Z,99925.03
2019-01-14T20:25:29.084Z,99934.42
2019-01-14T20:27:23.088Z,99926.34
2019-01-14T20:29:17.372Z,99928.61
2019-01-14T20:31:11.666Z,99927.13
2019-01-14T20:33:06.153Z,99910.67
2019-01-14T20:35:01.847Z,99931.91
2019-01-14T20:36:55.857Z,99932.49
2019-01-14T20:38:49.872Z,99936.36
2019-01-14T20:40:43.919Z,99937.48
2019-01-14T20:42:38.266Z,99940.79
2019-01-14T20:44:32.283Z,99935.64
2019-01-14T20:46:26.319Z,99943.16
2019-01-14T20:50:40.895Z,99956.81
2019-01-14T20:52:35.460Z,99960.45
2019-01-14T20:56:42.484Z,99963.03
2019-01-14T20:58:55.989Z,99970.84
2019-01-14T21:00:50.004Z,99972.71
2019-01-14T21:02:44.119Z,99983.67
2019-01-14T21:04:38.127Z,99976.70
2019-01-14T21:06:32.151Z,99966.78
2019-01-14T21:08:19.153Z,99969.03
2019-01-14T21:10:13.521Z,99959.34
2019-01-14T21:12:07.537Z,99974.84
2019-01-14T21:14:01.573Z,99969.66
2019-01-14T21:16:02.579Z,99973.37
2019-01-14T21:17:51.351Z,99977.96
2019-01-14T21:19:45.392Z,99976.02
2019-01-14T21:21:39.403Z,99979.05
2019-01-14T21:23:33.440Z,99975.72
2019-01-14T21:25:27.907Z,99975.66
2019-01-14T21:27:21.923Z,99978.86
2019-01-14T21:29:15.973Z,99976.95
2019-01-14T21:31:09.985Z,99982.35
2019-01-14T21:33:04.073Z,99977.16
2019-01-14T21:34:58.110Z,99979.38
2019-01-14T21:36:52.157Z,99982.44
2019-01-14T21:38:46.533Z,99979.33
2019-01-14T21:40:40.568Z,99982.58
2019-01-14T21:42:34.885Z,99980.48
2019-01-14T21:44:29.140Z,99981.40
2019-01-14T21:46:23.185Z,99983.79
2019-01-14T21:48:17.666Z,99975.98
2019-01-14T21:50:13.956Z,99985.17
2019-01-14T21:52:08.039Z,99984.02
2019-01-14T21:53:43.054Z,99976.05
2019-01-14T21:55:37.352Z,99980.53
2019-01-14T21:57:31.371Z,99990.27
2019-01-14T21:59:18.259Z,99981.02
2019-01-14T22:00:53.040Z,99974.50
2019-01-14T22:02:47.159Z,99985.09
2019-01-14T22:04:41.173Z,99986.37
2019-01-14T22:06:35.212Z,99981.59
2019-01-14T22:08:29.254Z,99992.16
2019-01-14T22:10:25.353Z,99974.14
2019-01-14T22:12:19.370Z,99951.70
2019-01-14T22:16:13.216Z,99983.84
2019-01-14T22:18:07.256Z,99974.84
2019-01-14T22:20:01.319Z,99984.98
2019-01-14T22:21:36.398Z,99980.95
2019-01-14T22:23:30.416Z,99981.88
2019-01-14T22:25:25.413Z,99986.56
2019-01-14T22:27:19.672Z,99970.20
2019-01-14T22:29:14.023Z,99979.49
2019-01-14T22:31:08.297Z,99985.30
2019-01-14T22:33:02.807Z,99980.85
2019-01-14T22:34:56.816Z,99973.55
2019-01-14T22:36:51.118Z,99985.91
2019-01-14T22:38:45.137Z,99980.53
2019-01-14T22:40:39.480Z,99970.39
2019-01-14T22:42:33.867Z,99979.10
2019-01-14T22:44:27.884Z,99981.34
2019-01-14T22:46:21.897Z,99978.16
2019-01-14T22:48:16.193Z,99992.66
2019-01-14T22:50:12.513Z,99990.67
2019-01-14T22:52:25.786Z,99992.83
2019-01-14T22:54:20.529Z,99982.14
2019-01-14T22:56:33.831Z,99984.13
2019-01-14T22:58:27.858Z,99987.67
2019-01-14T23:03:26.042Z,99971.33
2019-01-14T23:05:20.400Z,99978.77
2019-01-14T23:07:14.535Z,99979.34
2019-01-14T23:09:09.779Z,99976.23
2019-01-14T23:11:04.166Z,99979.06
2019-01-14T23:12:51.271Z,99971.39
2019-01-14T23:14:45.286Z,99984.09
2019-01-14T23:16:39.325Z,99984.23
2019-01-14T23:18:26.452Z,99981.06
2019-01-14T23:20:20.815Z,99983.75
2019-01-14T23:22:14.927Z,99972.31
2019-01-14T23:24:09.220Z,99988.38
2019-01-14T23:26:03.242Z,99986.82
2019-01-14T23:27:57.255Z,99988.69
2019-01-14T23:29:51.562Z,99991.52
2019-01-14T23:31:45.579Z,99987.59
2019-01-14T23:33:39.949Z,99995.23
2019-01-14T23:35:33.993Z,99984.88
2019-01-14T23:37:28.237Z,99979.11
2019-01-14T23:39:22.275Z,99970.87
2019-01-14T23:41:16.546Z,99976.56
2019-01-14T23:43:10.562Z,99980.47
2019-01-14T23:45:05.006Z,99986.37
2019-01-14T23:46:59.292Z,99987.30
2019-01-14T23:48:53.656Z,99982.16
2019-01-14T23:50:38.752Z,99976.23
2019-01-14T23:52:32.776Z,99979.77
2019-01-14T23:54:27.043Z,99975.68
2019-01-14T23:56:21.061Z,99980.75
2019-01-14T23:58:15.337Z,99971.91
